sensor_id;sensor_type;location;lat;lon;timestamp;P1;durP1;ratioP1;P2;durP2;ratioP2
11431;SDS011;5772;50.940;6.782;2024-01-10T00:01:56;34.30;;;32.10;;
11431;SDS011;5772;50.940;6.782;2024-01-10T00:04:23;34.33;;;32.33;;
11431;SDS011;5772;50.940;6.782;2024-01-10T00:06:48;34.30;;;32.33;;
11431;SDS011;5772;50.940;6.782;2024-01-10T00:09:14;34.50;;;32.60;;
11431;SDS011;5772;50.940;6.782;2024-01-10T00:11:39;33.67;;;31.67;;
11431;SDS011;5772;50.940;6.782;2024-01-10T00:14:04;33.83;;;32.10;;
11431;SDS011;5772;50.940;6.782;2024-01-10T00:16:30;34.93;;;32.67;;
11431;SDS011;5772;50.940;6.782;2024-01-10T00:18:55;33.73;;;31.80;;
11431;SDS011;5772;50.940;6.782;2024-01-10T00:21:22;34.97;;;32.63;;
11431;SDS011;5772;50.940;6.782;2024-01-10T00:23:47;36.73;;;34.53;;
11431;SDS011;5772;50.940;6.782;2024-01-10T00:26:13;34.60;;;32.23;;
11431;SDS011;5772;50.940;6.782;2024-01-10T00:28:38;35.37;;;33.47;;
11431;SDS011;5772;50.940;6.782;2024-01-10T00:31:03;33.20;;;31.50;;
11431;SDS011;5772;50.940;6.782;2024-01-10T00:33:29;34.17;;;32.00;;
11431;SDS011;5772;50.940;6.782;2024-01-10T00:35:54;34.20;;;32.30;;
11431;SDS011;5772;50.940;6.782;2024-01-10T00:38:21;34.90;;;32.83;;
11431;SDS011;5772;50.940;6.782;2024-01-10T00:40:46;34.77;;;32.63;;
11431;SDS011;5772;50.940;6.782;2024-01-10T00:43:12;36.37;;;34.47;;
11431;SDS011;5772;50.940;6.782;2024-01-10T00:45:37;34.77;;;33.00;;
11431;SDS011;5772;50.940;6.782;2024-01-10T00:48:03;34.90;;;33.00;;
11431;SDS011;5772;50.940;6.782;2024-01-10T00:50:28;36.37;;;34.37;;
11431;SDS011;5772;50.940;6.782;2024-01-10T00:52:54;35.73;;;33.23;;
11431;SDS011;5772;50.940;6.782;2024-01-10T00:55:20;35.73;;;33.27;;
11431;SDS011;5772;50.940;6.782;2024-01-10T00:57:46;35.40;;;33.30;;
11431;SDS011;5772;50.940;6.782;2024-01-10T01:00:12;35.27;;;33.13;;
11431;SDS011;5772;50.940;6.782;2024-01-10T01:02:37;37.47;;;35.50;;
11431;SDS011;5772;50.940;6.782;2024-01-10T01:05:03;35.03;;;33.07;;
11431;SDS011;5772;50.940;6.782;2024-01-10T01:07:29;36.87;;;35.00;;
11431;SDS011;5772;50.940;6.782;2024-01-10T01:09:54;35.57;;;33.60;;
11431;SDS011;5772;50.940;6.782;2024-01-10T01:12:21;36.30;;;34.13;;
11431;SDS011;5772;50.940;6.782;2024-01-10T01:14:46;34.70;;;32.93;;
11431;SDS011;5772;50.940;6.782;2024-01-10T01:17:12;34.30;;;32.40;;
11431;SDS011;5772;50.940;6.782;2024-01-10T01:19:37;36.00;;;33.40;;
11431;SDS011;5772;50.940;6.782;2024-01-10T01:22:03;35.13;;;33.27;;
11431;SDS011;5772;50.940;6.782;2024-01-10T01:24:28;34.93;;;32.93;;
11431;SDS011;5772;50.940;6.782;2024-01-10T01:26:53;35.10;;;33.07;;
11431;SDS011;5772;50.940;6.782;2024-01-10T01:29:20;34.83;;;32.83;;
11431;SDS011;5772;50.940;6.782;2024-01-10T01:31:46;35.33;;;33.40;;
11431;SDS011;5772;50.940;6.782;2024-01-10T01:34:12;35.20;;;32.67;;
11431;SDS011;5772;50.940;6.782;2024-01-10T01:36:37;37.33;;;35.47;;
11431;SDS011;5772;50.940;6.782;2024-01-10T01:39:03;35.17;;;33.23;;
11431;SDS011;5772;50.940;6.782;2024-01-10T01:41:28;35.57;;;33.47;;
11431;SDS011;5772;50.940;6.782;2024-01-10T01:43:53;33.67;;;31.90;;
11431;SDS011;5772;50.940;6.782;2024-01-10T01:46:20;34.40;;;32.63;;
11431;SDS011;5772;50.940;6.782;2024-01-10T01:48:46;37.17;;;35.17;;
11431;SDS011;5772;50.940;6.782;2024-01-10T01:51:11;36.20;;;34.23;;
11431;SDS011;5772;50.940;6.782;2024-01-10T01:53:37;33.83;;;32.13;;
11431;SDS011;5772;50.940;6.782;2024-01-10T01:56:05;33.80;;;31.97;;
11431;SDS011;5772;50.940;6.782;2024-01-10T01:58:31;33.63;;;31.93;;
11431;SDS011;5772;50.940;6.782;2024-01-10T02:00:56;35.63;;;33.43;;
11431;SDS011;5772;50.940;6.782;2024-01-10T02:03:23;35.53;;;33.53;;
11431;SDS011;5772;50.940;6.782;2024-01-10T02:05:48;33.80;;;32.10;;
11431;SDS011;5772;50.940;6.782;2024-01-10T02:08:14;35.80;;;33.87;;
11431;SDS011;5772;50.940;6.782;2024-01-10T02:10:40;37.13;;;34.70;;
11431;SDS011;5772;50.940;6.782;2024-01-10T02:13:05;35.03;;;33.20;;
11431;SDS011;5772;50.940;6.782;2024-01-10T02:15:31;35.87;;;33.87;;
11431;SDS011;5772;50.940;6.782;2024-01-10T02:17:56;35.57;;;33.60;;
11431;SDS011;5772;50.940;6.782;2024-01-10T02:20:23;34.23;;;31.97;;
11431;SDS011;5772;50.940;6.782;2024-01-10T02:22:48;34.57;;;32.33;;
11431;SDS011;5772;50.940;6.782;2024-01-10T02:25:15;37.50;;;35.07;;
11431;SDS011;5772;50.940;6.782;2024-01-10T02:27:40;32.97;;;31.37;;
11431;SDS011;5772;50.940;6.782;2024-01-10T02:30:07;37.50;;;35.57;;
11431;SDS011;5772;50.940;6.782;2024-01-10T02:32:33;38.77;;;36.87;;
11431;SDS011;5772;50.940;6.782;2024-01-10T02:34:58;36.17;;;34.10;;
11431;SDS011;5772;50.940;6.782;2024-01-10T02:37:24;37.13;;;34.90;;
11431;SDS011;5772;50.940;6.782;2024-01-10T02:39:49;35.83;;;33.63;;
11431;SDS011;5772;50.940;6.782;2024-01-10T02:42:16;37.90;;;35.43;;
11431;SDS011;5772;50.940;6.782;2024-01-10T02:44:42;36.37;;;34.20;;
11431;SDS011;5772;50.940;6.782;2024-01-10T02:47:07;34.30;;;32.57;;
11431;SDS011;5772;50.940;6.782;2024-01-10T02:49:33;37.13;;;35.20;;
11431;SDS011;5772;50.940;6.782;2024-01-10T02:51:59;34.63;;;32.70;;
11431;SDS011;5772;50.940;6.782;2024-01-10T02:54:24;35.80;;;33.87;;
11431;SDS011;5772;50.940;6.782;2024-01-10T02:56:50;34.17;;;32.47;;
11431;SDS011;5772;50.940;6.782;2024-01-10T02:59:16;35.00;;;32.83;;
11431;SDS011;5772;50.940;6.782;2024-01-10T03:01:42;35.40;;;33.30;;
11431;SDS011;5772;50.940;6.782;2024-01-10T03:04:07;34.83;;;33.03;;
11431;SDS011;5772;50.940;6.782;2024-01-10T03:06:33;37.07;;;35.10;;
11431;SDS011;5772;50.940;6.782;2024-01-10T03:08:58;36.80;;;35.03;;
11431;SDS011;5772;50.940;6.782;2024-01-10T03:11:23;36.23;;;34.43;;
11431;SDS011;5772;50.940;6.782;2024-01-10T03:13:49;35.27;;;33.43;;
11431;SDS011;5772;50.940;6.782;2024-01-10T03:16:20;35.37;;;33.33;;
11431;SDS011;5772;50.940;6.782;2024-01-10T03:18:45;36.33;;;34.17;;
11431;SDS011;5772;50.940;6.782;2024-01-10T03:21:11;35.87;;;33.97;;
11431;SDS011;5772;50.940;6.782;2024-01-10T03:23:36;34.30;;;32.40;;
11431;SDS011;5772;50.940;6.782;2024-01-10T03:26:01;35.37;;;33.57;;
11431;SDS011;5772;50.940;6.782;2024-01-10T03:28:27;33.63;;;31.83;;
11431;SDS011;5772;50.940;6.782;2024-01-10T03:30:52;35.37;;;33.50;;
11431;SDS011;5772;50.940;6.782;2024-01-10T03:33:19;34.07;;;32.40;;
11431;SDS011;5772;50.940;6.782;2024-01-10T03:35:44;36.40;;;34.70;;
11431;SDS011;5772;50.940;6.782;2024-01-10T03:38:09;36.97;;;34.07;;
11431;SDS011;5772;50.940;6.782;2024-01-10T03:40:35;36.37;;;34.43;;
11431;SDS011;5772;50.940;6.782;2024-01-10T03:43:00;36.97;;;34.77;;
11431;SDS011;5772;50.940;6.782;2024-01-10T03:45:26;34.47;;;32.67;;
11431;SDS011;5772;50.940;6.782;2024-01-10T03:47:51;35.37;;;33.50;;
11431;SDS011;5772;50.940;6.782;2024-01-10T03:50:18;36.50;;;34.37;;
11431;SDS011;5772;50.940;6.782;2024-01-10T03:52:44;35.97;;;34.07;;
11431;SDS011;5772;50.940;6.782;2024-01-10T03:55:09;37.43;;;35.57;;
11431;SDS011;5772;50.940;6.782;2024-01-10T03:57:35;37.17;;;34.87;;
11431;SDS011;5772;50.940;6.782;2024-01-10T04:00:02;36.30;;;34.03;;
11431;SDS011;5772;50.940;6.782;2024-01-10T04:02:28;36.57;;;34.67;;
11431;SDS011;5772;50.940;6.782;2024-01-10T04:04:53;36.20;;;34.23;;
11431;SDS011;5772;50.940;6.782;2024-01-10T04:07:20;37.37;;;35.23;;
11431;SDS011;5772;50.940;6.782;2024-01-10T04:09:45;35.30;;;33.50;;
11431;SDS011;5772;50.940;6.782;2024-01-10T04:12:11;34.50;;;32.60;;
11431;SDS011;5772;50.940;6.782;2024-01-10T04:14:36;36.37;;;34.70;;
11431;SDS011;5772;50.940;6.782;2024-01-10T04:17:01;38.90;;;36.90;;
11431;SDS011;5772;50.940;6.782;2024-01-10T04:19:27;36.60;;;34.80;;
11431;SDS011;5772;50.940;6.782;2024-01-10T04:21:52;35.23;;;33.50;;
11431;SDS011;5772;50.940;6.782;2024-01-10T04:24:19;35.50;;;33.30;;
11431;SDS011;5772;50.940;6.782;2024-01-10T04:26:44;35.53;;;33.50;;
11431;SDS011;5772;50.940;6.782;2024-01-10T04:29:10;36.30;;;34.47;;
11431;SDS011;5772;50.940;6.782;2024-01-10T04:31:35;35.77;;;33.83;;
11431;SDS011;5772;50.940;6.782;2024-01-10T04:34:01;38.87;;;36.83;;
11431;SDS011;5772;50.940;6.782;2024-01-10T04:36:26;36.43;;;34.43;;
11431;SDS011;5772;50.940;6.782;2024-01-10T04:38:51;36.00;;;34.30;;
11431;SDS011;5772;50.940;6.782;2024-01-10T04:41:18;37.07;;;35.33;;
11431;SDS011;5772;50.940;6.782;2024-01-10T04:43:44;36.20;;;34.47;;
11431;SDS011;5772;50.940;6.782;2024-01-10T04:46:09;36.97;;;35.00;;
11431;SDS011;5772;50.940;6.782;2024-01-10T04:48:34;34.77;;;32.80;;
11431;SDS011;5772;50.940;6.782;2024-01-10T04:51:00;35.83;;;34.03;;
11431;SDS011;5772;50.940;6.782;2024-01-10T04:53:25;39.77;;;37.37;;
11431;SDS011;5772;50.940;6.782;2024-01-10T04:55:50;37.10;;;35.30;;
11431;SDS011;5772;50.940;6.782;2024-01-10T04:58:17;38.00;;;35.77;;
11431;SDS011;5772;50.940;6.782;2024-01-10T05:00:42;37.60;;;35.70;;
11431;SDS011;5772;50.940;6.782;2024-01-10T05:03:08;35.57;;;33.73;;
11431;SDS011;5772;50.940;6.782;2024-01-10T05:05:33;36.50;;;34.80;;
11431;SDS011;5772;50.940;6.782;2024-01-10T05:07:58;38.50;;;36.40;;
11431;SDS011;5772;50.940;6.782;2024-01-10T05:10:24;37.17;;;34.97;;
11431;SDS011;5772;50.940;6.782;2024-01-10T05:12:49;36.20;;;34.27;;
11431;SDS011;5772;50.940;6.782;2024-01-10T05:15:16;35.60;;;33.87;;
11431;SDS011;5772;50.940;6.782;2024-01-10T05:17:41;35.37;;;33.70;;
11431;SDS011;5772;50.940;6.782;2024-01-10T05:20:07;36.37;;;34.53;;
11431;SDS011;5772;50.940;6.782;2024-01-10T05:22:34;36.73;;;34.77;;
11431;SDS011;5772;50.940;6.782;2024-01-10T05:25:00;35.83;;;34.13;;
11431;SDS011;5772;50.940;6.782;2024-01-10T05:27:26;37.50;;;35.37;;
11431;SDS011;5772;50.940;6.782;2024-01-10T05:29:51;35.97;;;33.93;;
11431;SDS011;5772;50.940;6.782;2024-01-10T05:32:18;37.13;;;35.33;;
11431;SDS011;5772;50.940;6.782;2024-01-10T05:34:43;39.03;;;36.70;;
11431;SDS011;5772;50.940;6.782;2024-01-10T05:37:09;36.03;;;34.33;;
11431;SDS011;5772;50.940;6.782;2024-01-10T05:39:34;36.47;;;34.50;;
11431;SDS011;5772;50.940;6.782;2024-01-10T05:42:00;36.13;;;34.23;;
11431;SDS011;5772;50.940;6.782;2024-01-10T05:44:25;37.43;;;35.47;;
11431;SDS011;5772;50.940;6.782;2024-01-10T05:46:50;39.20;;;36.93;;
11431;SDS011;5772;50.940;6.782;2024-01-10T05:49:17;37.60;;;35.53;;
11431;SDS011;5772;50.940;6.782;2024-01-10T05:51:42;37.90;;;35.80;;
11431;SDS011;5772;50.940;6.782;2024-01-10T05:54:08;36.57;;;34.53;;
11431;SDS011;5772;50.940;6.782;2024-01-10T05:56:33;39.33;;;37.37;;
11431;SDS011;5772;50.940;6.782;2024-01-10T05:58:58;35.57;;;33.77;;
11431;SDS011;5772;50.940;6.782;2024-01-10T06:01:24;36.13;;;34.23;;
11431;SDS011;5772;50.940;6.782;2024-01-10T06:03:49;35.50;;;33.90;;
11431;SDS011;5772;50.940;6.782;2024-01-10T06:06:16;35.90;;;34.10;;
11431;SDS011;5772;50.940;6.782;2024-01-10T06:08:41;38.53;;;36.40;;
11431;SDS011;5772;50.940;6.782;2024-01-10T06:11:07;38.50;;;36.50;;
11431;SDS011;5772;50.940;6.782;2024-01-10T06:13:32;36.33;;;34.43;;
11431;SDS011;5772;50.940;6.782;2024-01-10T06:15:57;39.33;;;37.17;;
11431;SDS011;5772;50.940;6.782;2024-01-10T06:18:23;40.60;;;38.17;;
11431;SDS011;5772;50.940;6.782;2024-01-10T06:20:48;37.83;;;36.00;;
11431;SDS011;5772;50.940;6.782;2024-01-10T06:23:15;38.43;;;36.30;;
11431;SDS011;5772;50.940;6.782;2024-01-10T06:25:40;38.43;;;36.43;;
11431;SDS011;5772;50.940;6.782;2024-01-10T06:28:06;39.43;;;37.57;;
11431;SDS011;5772;50.940;6.782;2024-01-10T06:30:31;37.70;;;35.60;;
11431;SDS011;5772;50.940;6.782;2024-01-10T06:32:56;36.87;;;34.67;;
11431;SDS011;5772;50.940;6.782;2024-01-10T06:35:22;38.37;;;36.07;;
11431;SDS011;5772;50.940;6.782;2024-01-10T06:37:47;37.23;;;35.30;;
11431;SDS011;5772;50.940;6.782;2024-01-10T06:40:14;38.30;;;36.30;;
11431;SDS011;5772;50.940;6.782;2024-01-10T06:42:40;36.53;;;34.27;;
11431;SDS011;5772;50.940;6.782;2024-01-10T06:45:06;39.70;;;37.07;;
11431;SDS011;5772;50.940;6.782;2024-01-10T06:47:32;37.10;;;34.60;;
11431;SDS011;5772;50.940;6.782;2024-01-10T06:49:57;38.33;;;36.13;;
11431;SDS011;5772;50.940;6.782;2024-01-10T06:52:22;38.23;;;36.47;;
11431;SDS011;5772;50.940;6.782;2024-01-10T06:54:48;37.83;;;35.97;;
11431;SDS011;5772;50.940;6.782;2024-01-10T06:57:15;36.00;;;34.23;;
11431;SDS011;5772;50.940;6.782;2024-01-10T06:59:40;37.27;;;35.37;;
11431;SDS011;5772;50.940;6.782;2024-01-10T07:02:05;38.70;;;36.80;;
11431;SDS011;5772;50.940;6.782;2024-01-10T07:04:31;40.20;;;38.00;;
11431;SDS011;5772;50.940;6.782;2024-01-10T07:06:56;40.03;;;37.73;;
11431;SDS011;5772;50.940;6.782;2024-01-10T07:09:21;38.87;;;36.53;;
11431;SDS011;5772;50.940;6.782;2024-01-10T07:11:47;36.60;;;34.70;;
11431;SDS011;5772;50.940;6.782;2024-01-10T07:14:14;38.03;;;35.97;;
11431;SDS011;5772;50.940;6.782;2024-01-10T07:16:39;38.83;;;36.57;;
11431;SDS011;5772;50.940;6.782;2024-01-10T07:19:05;38.27;;;36.17;;
11431;SDS011;5772;50.940;6.782;2024-01-10T07:21:30;36.80;;;35.03;;
11431;SDS011;5772;50.940;6.782;2024-01-10T07:23:55;37.20;;;35.40;;
11431;SDS011;5772;50.940;6.782;2024-01-10T07:26:21;38.77;;;36.60;;
11431;SDS011;5772;50.940;6.782;2024-01-10T07:28:46;40.33;;;37.77;;
11431;SDS011;5772;50.940;6.782;2024-01-10T07:31:13;36.63;;;34.73;;
11431;SDS011;5772;50.940;6.782;2024-01-10T07:33:38;37.97;;;35.77;;
11431;SDS011;5772;50.940;6.782;2024-01-10T07:36:04;40.60;;;38.47;;
11431;SDS011;5772;50.940;6.782;2024-01-10T07:38:29;39.23;;;37.03;;
11431;SDS011;5772;50.940;6.782;2024-01-10T07:40:55;41.10;;;38.27;;
11431;SDS011;5772;50.940;6.782;2024-01-10T07:43:20;37.53;;;34.93;;
11431;SDS011;5772;50.940;6.782;2024-01-10T07:45:46;39.43;;;37.50;;
11431;SDS011;5772;50.940;6.782;2024-01-10T07:48:12;36.60;;;34.67;;
11431;SDS011;5772;50.940;6.782;2024-01-10T07:50:38;38.83;;;36.83;;
11431;SDS011;5772;50.940;6.782;2024-01-10T07:53:03;36.03;;;34.20;;
11431;SDS011;5772;50.940;6.782;2024-01-10T07:55:29;39.03;;;37.10;;
11431;SDS011;5772;50.940;6.782;2024-01-10T07:57:54;41.03;;;38.33;;
11431;SDS011;5772;50.940;6.782;2024-01-10T08:00:20;37.27;;;35.00;;
11431;SDS011;5772;50.940;6.782;2024-01-10T08:02:45;39.47;;;37.43;;
11431;SDS011;5772;50.940;6.782;2024-01-10T08:05:12;37.57;;;35.20;;
11431;SDS011;5772;50.940;6.782;2024-01-10T08:07:37;37.70;;;35.53;;
11431;SDS011;5772;50.940;6.782;2024-01-10T08:10:03;39.23;;;36.97;;
11431;SDS011;5772;50.940;6.782;2024-01-10T08:12:29;37.00;;;34.83;;
11431;SDS011;5772;50.940;6.782;2024-01-10T08:14:54;40.23;;;37.70;;
11431;SDS011;5772;50.940;6.782;2024-01-10T08:17:20;36.60;;;34.40;;
11431;SDS011;5772;50.940;6.782;2024-01-10T08:19:45;39.17;;;36.50;;
11431;SDS011;5772;50.940;6.782;2024-01-10T08:22:12;41.53;;;39.03;;
11431;SDS011;5772;50.940;6.782;2024-01-10T08:24:37;39.37;;;37.13;;
11431;SDS011;5772;50.940;6.782;2024-01-10T08:27:03;38.87;;;36.43;;
11431;SDS011;5772;50.940;6.782;2024-01-10T08:29:28;37.30;;;35.23;;
11431;SDS011;5772;50.940;6.782;2024-01-10T09:57:19;40.50;;;37.63;;
11431;SDS011;5772;50.940;6.782;2024-01-10T09:59:44;38.47;;;35.67;;
11431;SDS011;5772;50.940;6.782;2024-01-10T10:02:09;36.33;;;33.67;;
11431;SDS011;5772;50.940;6.782;2024-01-10T10:04:35;38.17;;;35.33;;
11431;SDS011;5772;50.940;6.782;2024-01-10T10:07:01;34.10;;;32.10;;
11431;SDS011;5772;50.940;6.782;2024-01-10T10:09:27;33.70;;;31.63;;
11431;SDS011;5772;50.940;6.782;2024-01-10T10:11:53;34.90;;;32.53;;
11431;SDS011;5772;50.940;6.782;2024-01-10T10:14:20;34.00;;;31.23;;
11431;SDS011;5772;50.940;6.782;2024-01-10T10:16:46;35.80;;;33.20;;
11431;SDS011;5772;50.940;6.782;2024-01-10T10:19:11;34.97;;;32.70;;
11431;SDS011;5772;50.940;6.782;2024-01-10T10:21:37;34.63;;;32.33;;
11431;SDS011;5772;50.940;6.782;2024-01-10T10:24:02;33.37;;;31.17;;
11431;SDS011;5772;50.940;6.782;2024-01-10T10:26:28;33.63;;;31.37;;
11431;SDS011;5772;50.940;6.782;2024-01-10T10:28:53;32.20;;;29.80;;
11431;SDS011;5772;50.940;6.782;2024-01-10T10:31:20;32.30;;;29.93;;
11431;SDS011;5772;50.940;6.782;2024-01-10T10:33:46;31.40;;;29.30;;
11431;SDS011;5772;50.940;6.782;2024-01-10T10:36:13;29.57;;;27.40;;
11431;SDS011;5772;50.940;6.782;2024-01-10T10:38:39;38.50;;;35.93;;
11431;SDS011;5772;50.940;6.782;2024-01-10T10:41:05;37.37;;;34.77;;
11431;SDS011;5772;50.940;6.782;2024-01-10T10:43:31;34.27;;;32.20;;
11431;SDS011;5772;50.940;6.782;2024-01-10T10:45:59;32.77;;;30.10;;
11431;SDS011;5772;50.940;6.782;2024-01-10T10:48:26;30.07;;;28.13;;
11431;SDS011;5772;50.940;6.782;2024-01-10T10:50:54;32.63;;;30.23;;
11431;SDS011;5772;50.940;6.782;2024-01-10T10:53:24;34.37;;;31.77;;
11431;SDS011;5772;50.940;6.782;2024-01-10T10:55:51;31.37;;;28.87;;
11431;SDS011;5772;50.940;6.782;2024-01-10T10:58:17;33.80;;;31.10;;
11431;SDS011;5772;50.940;6.782;2024-01-10T11:00:42;33.87;;;31.33;;
11431;SDS011;5772;50.940;6.782;2024-01-10T11:03:08;32.63;;;30.47;;
11431;SDS011;5772;50.940;6.782;2024-01-10T11:05:36;33.33;;;30.90;;
11431;SDS011;5772;50.940;6.782;2024-01-10T11:08:03;31.00;;;28.70;;
11431;SDS011;5772;50.940;6.782;2024-01-10T11:10:30;32.87;;;30.63;;
11431;SDS011;5772;50.940;6.782;2024-01-10T11:13:00;31.20;;;28.80;;
11431;SDS011;5772;50.940;6.782;2024-01-10T11:15:40;30.50;;;28.70;;
11431;SDS011;5772;50.940;6.782;2024-01-10T11:18:25;29.60;;;27.67;;
11431;SDS011;5772;50.940;6.782;2024-01-10T11:21:01;30.67;;;28.53;;
11431;SDS011;5772;50.940;6.782;2024-01-10T11:23:39;32.50;;;30.20;;
11431;SDS011;5772;50.940;6.782;2024-01-10T11:26:06;33.90;;;31.53;;
11431;SDS011;5772;50.940;6.782;2024-01-10T11:28:32;30.50;;;27.90;;
11431;SDS011;5772;50.940;6.782;2024-01-10T11:30:57;31.27;;;28.80;;
11431;SDS011;5772;50.940;6.782;2024-01-10T11:33:24;32.10;;;29.90;;
11431;SDS011;5772;50.940;6.782;2024-01-10T11:36:07;31.00;;;28.67;;
11431;SDS011;5772;50.940;6.782;2024-01-10T11:38:34;34.60;;;32.10;;
11431;SDS011;5772;50.940;6.782;2024-01-10T11:40:59;35.43;;;33.03;;
11431;SDS011;5772;50.940;6.782;2024-01-10T11:43:25;36.33;;;34.00;;
11431;SDS011;5772;50.940;6.782;2024-01-10T11:45:51;37.67;;;35.17;;
11431;SDS011;5772;50.940;6.782;2024-01-10T11:48:16;35.67;;;33.27;;
11431;SDS011;5772;50.940;6.782;2024-01-10T11:50:42;33.90;;;31.20;;
11431;SDS011;5772;50.940;6.782;2024-01-10T11:53:09;31.20;;;28.80;;
11431;SDS011;5772;50.940;6.782;2024-01-10T11:55:47;29.10;;;27.03;;
11431;SDS011;5772;50.940;6.782;2024-01-10T11:58:13;30.53;;;28.13;;
11431;SDS011;5772;50.940;6.782;2024-01-10T12:00:38;32.70;;;30.20;;
11431;SDS011;5772;50.940;6.782;2024-01-10T12:03:04;31.43;;;29.13;;
11431;SDS011;5772;50.940;6.782;2024-01-10T12:05:30;35.40;;;32.67;;
11431;SDS011;5772;50.940;6.782;2024-01-10T12:07:55;30.53;;;28.40;;
11431;SDS011;5772;50.940;6.782;2024-01-10T12:10:22;31.70;;;29.17;;
11431;SDS011;5772;50.940;6.782;2024-01-10T12:12:50;36.10;;;33.70;;
11431;SDS011;5772;50.940;6.782;2024-01-10T12:15:16;38.20;;;35.37;;
11431;SDS011;5772;50.940;6.782;2024-01-10T12:17:41;36.97;;;34.33;;
11431;SDS011;5772;50.940;6.782;2024-01-10T12:20:07;32.87;;;30.07;;
11431;SDS011;5772;50.940;6.782;2024-01-10T12:22:33;31.50;;;29.33;;
11431;SDS011;5772;50.940;6.782;2024-01-10T12:25:03;32.90;;;30.43;;
11431;SDS011;5772;50.940;6.782;2024-01-10T12:27:30;33.53;;;31.30;;
11431;SDS011;5772;50.940;6.782;2024-01-10T12:29:56;34.20;;;31.87;;
11431;SDS011;5772;50.940;6.782;2024-01-10T12:32:21;32.37;;;29.87;;
11431;SDS011;5772;50.940;6.782;2024-01-10T12:34:47;33.83;;;31.27;;
11431;SDS011;5772;50.940;6.782;2024-01-10T12:37:12;32.23;;;29.83;;
11431;SDS011;5772;50.940;6.782;2024-01-10T12:39:38;36.93;;;34.53;;
11431;SDS011;5772;50.940;6.782;2024-01-10T12:42:03;32.27;;;29.80;;
11431;SDS011;5772;50.940;6.782;2024-01-10T12:44:31;30.13;;;28.00;;
11431;SDS011;5772;50.940;6.782;2024-01-10T12:46:56;30.17;;;28.13;;
11431;SDS011;5772;50.940;6.782;2024-01-10T12:49:22;33.00;;;30.53;;
11431;SDS011;5772;50.940;6.782;2024-01-10T12:51:47;31.67;;;29.27;;
11431;SDS011;5772;50.940;6.782;2024-01-10T12:54:13;31.47;;;29.20;;
11431;SDS011;5772;50.940;6.782;2024-01-10T12:56:39;33.20;;;30.37;;
11431;SDS011;5772;50.940;6.782;2024-01-10T12:59:04;32.73;;;30.13;;
11431;SDS011;5772;50.940;6.782;2024-01-10T13:01:31;34.40;;;32.00;;
11431;SDS011;5772;50.940;6.782;2024-01-10T13:03:56;35.00;;;32.80;;
11431;SDS011;5772;50.940;6.782;2024-01-10T13:06:22;33.80;;;31.47;;
11431;SDS011;5772;50.940;6.782;2024-01-10T13:08:47;33.60;;;31.13;;
11431;SDS011;5772;50.940;6.782;2024-01-10T13:11:13;33.80;;;31.33;;
11431;SDS011;5772;50.940;6.782;2024-01-10T13:13:38;33.47;;;31.03;;
11431;SDS011;5772;50.940;6.782;2024-01-10T13:16:04;33.97;;;31.67;;
11431;SDS011;5772;50.940;6.782;2024-01-10T13:18:31;32.40;;;29.80;;
11431;SDS011;5772;50.940;6.782;2024-01-10T13:20:57;34.47;;;32.07;;
11431;SDS011;5772;50.940;6.782;2024-01-10T13:23:22;31.37;;;28.97;;
11431;SDS011;5772;50.940;6.782;2024-01-10T13:25:48;31.67;;;29.63;;
11431;SDS011;5772;50.940;6.782;2024-01-10T13:28:13;33.80;;;31.20;;
11431;SDS011;5772;50.940;6.782;2024-01-10T13:30:38;32.80;;;30.40;;
11431;SDS011;5772;50.940;6.782;2024-01-10T13:33:04;34.17;;;31.67;;
11431;SDS011;5772;50.940;6.782;2024-01-10T13:35:31;32.23;;;30.03;;
11431;SDS011;5772;50.940;6.782;2024-01-10T13:37:56;32.87;;;29.90;;
11431;SDS011;5772;50.940;6.782;2024-01-10T13:40:21;33.97;;;31.17;;
11431;SDS011;5772;50.940;6.782;2024-01-10T13:42:47;35.37;;;32.43;;
11431;SDS011;5772;50.940;6.782;2024-01-10T13:45:12;36.07;;;33.30;;
11431;SDS011;5772;50.940;6.782;2024-01-10T13:47:37;35.57;;;32.97;;
11431;SDS011;5772;50.940;6.782;2024-01-10T13:50:03;37.00;;;33.87;;
11431;SDS011;5772;50.940;6.782;2024-01-10T13:52:30;35.53;;;33.30;;
11431;SDS011;5772;50.940;6.782;2024-01-10T13:54:56;35.23;;;32.70;;
11431;SDS011;5772;50.940;6.782;2024-01-10T13:57:21;35.13;;;32.73;;
11431;SDS011;5772;50.940;6.782;2024-01-10T13:59:46;34.37;;;31.57;;
11431;SDS011;5772;50.940;6.782;2024-01-10T14:02:12;35.27;;;32.17;;
11431;SDS011;5772;50.940;6.782;2024-01-10T14:04:37;32.93;;;30.47;;
11431;SDS011;5772;50.940;6.782;2024-01-10T14:07:03;29.90;;;27.87;;
11431;SDS011;5772;50.940;6.782;2024-01-10T14:09:30;30.90;;;28.90;;
11431;SDS011;5772;50.940;6.782;2024-01-10T14:11:55;32.33;;;29.47;;
11431;SDS011;5772;50.940;6.782;2024-01-10T14:14:21;30.93;;;28.80;;
11431;SDS011;5772;50.940;6.782;2024-01-10T14:16:46;32.17;;;29.97;;
11431;SDS011;5772;50.940;6.782;2024-01-10T14:19:11;30.97;;;28.60;;
11431;SDS011;5772;50.940;6.782;2024-01-10T14:21:37;30.10;;;28.03;;
11431;SDS011;5772;50.940;6.782;2024-01-10T14:24:02;31.83;;;29.20;;
11431;SDS011;5772;50.940;6.782;2024-01-10T14:26:29;32.03;;;29.57;;
11431;SDS011;5772;50.940;6.782;2024-01-10T14:28:55;32.57;;;29.93;;
11431;SDS011;5772;50.940;6.782;2024-01-10T14:31:20;32.33;;;29.57;;
11431;SDS011;5772;50.940;6.782;2024-01-10T14:33:46;32.67;;;30.30;;
11431;SDS011;5772;50.940;6.782;2024-01-10T14:36:11;32.50;;;30.33;;
11431;SDS011;5772;50.940;6.782;2024-01-10T14:38:38;32.60;;;30.30;;
11431;SDS011;5772;50.940;6.782;2024-01-10T14:41:03;30.53;;;28.13;;
11431;SDS011;5772;50.940;6.782;2024-01-10T14:43:30;32.83;;;30.23;;
11431;SDS011;5772;50.940;6.782;2024-01-10T14:45:55;31.63;;;29.50;;
11431;SDS011;5772;50.940;6.782;2024-01-10T14:48:21;30.77;;;28.57;;
11431;SDS011;5772;50.940;6.782;2024-01-10T14:50:46;32.00;;;29.40;;
11431;SDS011;5772;50.940;6.782;2024-01-10T14:53:11;31.23;;;28.60;;
11431;SDS011;5772;50.940;6.782;2024-01-10T14:55:37;34.30;;;31.80;;
11431;SDS011;5772;50.940;6.782;2024-01-10T14:58:03;33.17;;;30.67;;
11431;SDS011;5772;50.940;6.782;2024-01-10T15:00:29;33.27;;;30.80;;
11431;SDS011;5772;50.940;6.782;2024-01-10T15:02:55;35.67;;;32.90;;
11431;SDS011;5772;50.940;6.782;2024-01-10T15:05:20;35.17;;;31.83;;
11431;SDS011;5772;50.940;6.782;2024-01-10T15:07:46;33.60;;;31.03;;
11431;SDS011;5772;50.940;6.782;2024-01-10T15:10:11;32.30;;;29.50;;
11431;SDS011;5772;50.940;6.782;2024-01-10T15:12:36;30.73;;;28.27;;
11431;SDS011;5772;50.940;6.782;2024-01-10T15:15:02;31.33;;;29.13;;
11431;SDS011;5772;50.940;6.782;2024-01-10T15:17:29;32.97;;;30.57;;
11431;SDS011;5772;50.940;6.782;2024-01-10T15:19:54;32.70;;;30.47;;
11431;SDS011;5772;50.940;6.782;2024-01-10T15:22:19;32.03;;;29.83;;
11431;SDS011;5772;50.940;6.782;2024-01-10T15:24:45;31.57;;;29.27;;
11431;SDS011;5772;50.940;6.782;2024-01-10T15:27:10;31.57;;;29.37;;
11431;SDS011;5772;50.940;6.782;2024-01-10T15:29:36;33.67;;;30.77;;
11431;SDS011;5772;50.940;6.782;2024-01-10T15:32:02;30.73;;;28.20;;
11431;SDS011;5772;50.940;6.782;2024-01-10T15:34:29;30.83;;;28.43;;
11431;SDS011;5772;50.940;6.782;2024-01-10T15:36:54;32.20;;;29.93;;
11431;SDS011;5772;50.940;6.782;2024-01-10T15:39:19;31.67;;;29.40;;
11431;SDS011;5772;50.940;6.782;2024-01-10T15:41:45;33.70;;;31.13;;
11431;SDS011;5772;50.940;6.782;2024-01-10T15:44:11;33.27;;;30.63;;
11431;SDS011;5772;50.940;6.782;2024-01-10T15:46:37;32.23;;;29.30;;
11431;SDS011;5772;50.940;6.782;2024-01-10T15:51:58;34.33;;;31.77;;
11431;SDS011;5772;50.940;6.782;2024-01-10T15:54:38;36.93;;;34.00;;